Time;durP1;ratioP1;P1;durP2;ratioP2;P2;SDS_P1;SDS_P2;PMS_P1;PMS_P2;Temp;Humidity;BMP_temperature;BMP_pressure;BME280_temperature;BME280_humidity;BME280_pressure;Samples;Min_cycle;Max_cycle;Signal;HPM_P1;HPM_P2
2022/07/24 00:01:08;;;;;;;16.48;13.00;;;24.40;75.10;;;;;;5014567;28;20049;-84
2022/07/24 00:03:33;;;;;;;15.07;12.30;;;24.40;75.20;;;;;;5031519;28;20086;-84
2022/07/24 00:05:59;;;;;;;15.00;11.85;;;24.40;75.30;;;;;;5013445;28;20025;-83
2022/07/24 00:08:25;;;;;;;16.00;11.90;;;24.40;75.40;;;;;;4996219;28;20038;-83
2022/07/24 00:10:51;;;;;;;16.70;11.75;;;24.40;76.00;;;;;;5014167;28;20026;-84
2022/07/24 00:13:17;;;;;;;14.20;12.23;;;24.40;75.40;;;;;;5013979;28;20505;-84
2022/07/24 00:15:43;;;;;;;15.05;11.93;;;24.30;75.40;;;;;;5017940;28;20037;-84
2022/07/24 00:18:09;;;;;;;14.07;11.75;;;24.40;75.40;;;;;;5015484;28;20030;-84
2022/07/24 00:20:35;;;;;;;14.85;12.00;;;24.30;75.40;;;;;;5033698;28;20040;-83
2022/07/24 00:23:01;;;;;;;12.52;11.23;;;24.40;75.50;;;;;;5022815;28;20034;-83
2022/07/24 00:25:27;;;;;;;13.50;11.73;;;24.40;75.50;;;;;;5019967;28;20033;-84
2022/07/24 00:27:53;;;;;;;15.60;11.88;;;24.30;75.50;;;;;;5015192;28;20508;-83
2022/07/24 00:30:19;;;;;;;14.05;11.68;;;24.30;76.00;;;;;;5032075;28;20042;-83
2022/07/24 00:32:45;;;;;;;13.45;11.90;;;24.30;75.30;;;;;;5015312;28;20036;-83
2022/07/24 00:35:13;;;;;;;14.02;11.80;;;24.30;75.50;;;;;;5017918;28;20060;-83
2022/07/24 00:37:39;;;;;;;21.13;11.93;;;24.20;75.30;;;;;;5017896;28;20037;-83
2022/07/24 00:40:05;;;;;;;14.13;11.93;;;24.30;75.70;;;;;;5017575;28;20036;-84
2022/07/24 00:42:31;;;;;;;12.60;11.27;;;24.20;75.50;;;;;;5033689;28;20124;-83
2022/07/24 00:44:57;;;;;;;14.02;11.65;;;24.30;75.50;;;;;;5018546;28;20126;-83
2022/07/24 00:47:23;;;;;;;14.32;11.18;;;24.20;75.50;;;;;;5018530;28;20044;-83
2022/07/24 00:49:50;;;;;;;13.63;11.90;;;24.20;75.50;;;;;;5001533;28;20073;-83
2022/07/24 00:52:16;;;;;;;12.73;11.23;;;24.20;75.50;;;;;;5017445;28;20531;-83
2022/07/24 00:54:42;;;;;;;13.35;11.63;;;24.20;75.60;;;;;;4999982;28;20365;-84
2022/07/24 00:57:07;;;;;;;13.77;11.23;;;24.20;75.60;;;;;;5000447;28;20034;-83
2022/07/24 00:59:33;;;;;;;15.10;11.85;;;24.20;75.70;;;;;;5001485;28;20061;-83
2022/07/24 01:01:59;;;;;;;12.68;11.38;;;24.20;75.60;;;;;;5007045;28;20120;-83
2022/07/24 01:04:25;;;;;;;12.35;11.05;;;24.10;75.60;;;;;;5017894;28;20529;-84
2022/07/24 01:06:52;;;;;;;14.82;11.07;;;24.20;75.60;;;;;;5033202;28;20506;-84
2022/07/24 01:09:18;;;;;;;14.90;11.35;;;24.20;75.50;;;;;;5015237;28;20033;-84
2022/07/24 01:11:44;;;;;;;13.18;11.38;;;24.20;75.60;;;;;;5000366;28;20042;-84
2022/07/24 01:14:11;;;;;;;16.25;11.82;;;24.20;75.50;;;;;;5018776;28;20033;-83
2022/07/24 01:16:37;;;;;;;14.00;11.93;;;24.10;75.70;;;;;;5000249;28;20484;-83
2022/07/24 01:19:03;;;;;;;12.38;11.07;;;24.10;75.80;;;;;;4977017;28;20041;-83
2022/07/24 01:21:29;;;;;;;14.85;11.70;;;24.10;75.80;;;;;;5016355;28;20040;-83
2022/07/24 01:23:55;;;;;;;15.00;11.70;;;24.10;75.40;;;;;;5000626;28;20033;-84
2022/07/24 01:26:21;;;;;;;13.93;11.70;;;24.10;75.10;;;;;;5017837;28;20056;-84
2022/07/24 01:28:47;;;;;;;12.25;10.45;;;24.10;75.10;;;;;;5017719;28;20077;-85
2022/07/24 01:31:13;;;;;;;14.05;10.30;;;24.10;75.00;;;;;;5017148;28;20046;-83
2022/07/24 01:33:39;;;;;;;13.93;10.57;;;24.10;74.40;;;;;;5016837;28;20038;-84
2022/07/24 01:36:05;;;;;;;13.45;10.20;;;24.10;74.00;;;;;;5017392;28;20057;-84
2022/07/24 01:38:31;;;;;;;11.75;10.48;;;24.10;74.20;;;;;;5017393;28;20033;-84
2022/07/24 01:40:57;;;;;;;13.20;10.45;;;24.10;74.60;;;;;;5016221;28;20029;-84
2022/07/24 01:43:23;;;;;;;12.57;10.63;;;24.10;74.70;;;;;;5016517;28;20492;-84
2022/07/24 01:45:49;;;;;;;13.27;10.35;;;24.10;74.60;;;;;;5017140;28;20040;-84
2022/07/24 01:48:16;;;;;;;13.27;10.48;;;24.10;74.60;;;;;;5017366;28;20036;-83
2022/07/24 01:50:42;;;;;;;12.30;10.90;;;24.10;74.40;;;;;;5015814;28;20440;-84
2022/07/24 01:53:08;;;;;;;12.50;10.35;;;24.10;74.20;;;;;;5018557;28;20030;-84
2022/07/24 01:55:34;;;;;;;14.98;11.40;;;24.10;74.00;;;;;;5017621;28;20991;-83
2022/07/24 01:58:00;;;;;;;11.95;10.63;;;24.10;73.80;;;;;;5022172;28;20511;-84
2022/07/24 02:00:26;;;;;;;12.75;10.70;;;24.10;73.80;;;;;;5017574;28;20436;-84
2022/07/24 02:02:52;;;;;;;15.20;11.48;;;24.10;73.80;;;;;;5003562;28;20041;-84
2022/07/24 02:05:18;;;;;;;14.52;11.95;;;24.10;73.70;;;;;;5015675;28;20037;-83
2022/07/24 02:07:44;;;;;;;17.60;11.20;;;24.10;73.50;;;;;;4998643;28;20030;-84
2022/07/24 02:10:13;;;;;;;12.52;10.40;;;24.10;73.50;;;;;;5015560;28;20038;-84
2022/07/24 02:12:40;;;;;;;13.77;11.15;;;24.10;73.90;;;;;;5016045;28;20100;-84
2022/07/24 02:15:06;;;;;;;12.93;10.45;;;24.10;74.10;;;;;;5015541;28;20030;-84
2022/07/24 02:17:33;;;;;;;12.25;10.35;;;24.10;74.10;;;;;;5015560;28;20037;-84
2022/07/24 02:19:58;;;;;;;15.85;10.93;;;24.10;74.10;;;;;;5017606;28;20030;-84
2022/07/24 02:22:24;;;;;;;14.55;10.63;;;24.20;73.80;;;;;;5017283;28;20049;-84
2022/07/24 02:24:50;;;;;;;13.23;10.50;;;24.20;73.60;;;;;;5016315;28;20029;-84
2022/07/24 02:27:16;;;;;;;14.63;11.18;;;24.10;73.40;;;;;;5015271;28;20088;-84
2022/07/24 02:29:42;;;;;;;17.42;11.50;;;24.20;73.60;;;;;;5017619;28;20034;-84
2022/07/24 02:32:08;;;;;;;14.40;10.40;;;24.20;73.80;;;;;;5033537;28;20038;-84
2022/07/24 02:34:35;;;;;;;14.65;10.55;;;24.20;73.90;;;;;;4999984;28;20041;-83
2022/07/24 02:37:01;;;;;;;13.73;10.27;;;24.20;74.20;;;;;;5016429;28;20405;-84
2022/07/24 02:39:27;;;;;;;15.55;10.35;;;24.20;74.30;;;;;;5015610;28;20137;-83
2022/07/24 02:41:53;;;;;;;13.63;10.60;;;24.20;74.10;;;;;;5017053;28;20085;-84
2022/07/24 02:44:19;;;;;;;13.73;9.93;;;24.30;73.90;;;;;;5003253;28;20451;-84
2022/07/24 02:46:44;;;;;;;13.07;9.80;;;24.30;73.80;;;;;;4998435;28;20038;-84
2022/07/24 02:49:11;;;;;;;11.85;9.88;;;24.40;74.00;;;;;;5015157;28;20064;-83
2022/07/24 02:51:37;;;;;;;17.73;10.10;;;24.50;74.40;;;;;;5016296;28;20030;-83
2022/07/24 02:54:03;;;;;;;13.68;10.30;;;24.60;74.10;;;;;;5015438;28;20037;-83
2022/07/24 02:56:29;;;;;;;15.20;10.15;;;24.70;73.90;;;;;;5016415;28;20088;-84
2022/07/24 02:58:55;;;;;;;12.30;9.40;;;24.80;73.60;;;;;;5000711;28;20034;-84
2022/07/24 03:01:21;;;;;;;12.82;9.65;;;24.80;73.90;;;;;;4992879;28;20137;-83
2022/07/24 03:03:47;;;;;;;11.90;9.73;;;24.90;74.30;;;;;;5040096;28;20034;-84
2022/07/24 03:06:12;;;;;;;14.20;10.13;;;25.00;74.10;;;;;;5002077;28;20037;-84
2022/07/24 03:08:38;;;;;;;15.35;10.23;;;25.00;73.60;;;;;;5000015;28;20041;-84
2022/07/24 03:11:05;;;;;;;19.90;10.43;;;25.00;73.40;;;;;;5015596;28;20025;-83
2022/07/24 03:13:31;;;;;;;11.35;9.65;;;25.00;74.50;;;;;;5014390;28;20030;-83
2022/07/24 03:15:56;;;;;;;12.48;9.70;;;25.00;74.10;;;;;;4997829;28;20040;-84
2022/07/24 03:18:22;;;;;;;12.20;9.65;;;25.00;73.90;;;;;;5014437;28;20614;-84
2022/07/24 03:20:49;;;;;;;11.05;9.95;;;25.00;73.90;;;;;;5014162;28;20034;-84
2022/07/24 03:23:15;;;;;;;11.20;9.38;;;25.00;74.10;;;;;;5014039;28;20554;-83
2022/07/24 03:25:41;;;;;;;11.90;9.73;;;25.00;74.60;;;;;;4996480;28;20035;-84
2022/07/24 03:28:07;;;;;;;10.57;9.43;;;25.00;74.70;;;;;;4967893;28;20067;-85
2022/07/24 03:30:33;;;;;;;14.25;9.90;;;25.00;74.70;;;;;;4979784;28;20601;-84
2022/07/24 03:32:59;;;;;;;11.63;10.27;;;25.00;75.10;;;;;;4995322;28;20061;-83
2022/07/24 03:35:25;;;;;;;13.75;10.27;;;25.00;75.20;;;;;;4995200;28;20501;-83
2022/07/24 03:37:51;;;;;;;13.98;9.75;;;25.00;75.20;;;;;;4993873;28;20044;-84
2022/07/24 03:40:17;;;;;;;13.32;10.18;;;25.10;74.40;;;;;;4995867;28;20125;-84
2022/07/24 03:42:43;;;;;;;11.82;9.73;;;25.10;74.40;;;;;;5011031;28;20141;-84
2022/07/24 03:45:09;;;;;;;15.05;10.07;;;25.00;74.20;;;;;;4977776;28;20425;-84
2022/07/24 03:47:35;;;;;;;11.93;9.48;;;25.20;74.10;;;;;;4977832;28;20129;-83
2022/07/24 03:50:02;;;;;;;10.68;9.32;;;25.20;74.60;;;;;;5011138;28;20113;-84
2022/07/24 03:52:27;;;;;;;12.27;8.90;;;25.40;72.20;;;;;;4993124;28;20034;-84
2022/07/24 03:54:55;;;;;;;12.32;9.32;;;25.60;71.10;;;;;;4974258;28;20034;-83
2022/07/24 03:57:21;;;;;;;12.95;9.38;;;25.70;70.30;;;;;;5002141;28;20026;-84
2022/07/24 03:59:47;;;;;;;12.27;9.15;;;25.90;69.80;;;;;;5001228;28;20416;-83
2022/07/24 04:02:13;;;;;;;12.32;9.40;;;26.00;69.40;;;;;;4998394;28;20048;-83
2022/07/24 04:04:40;;;;;;;10.70;9.60;;;26.10;69.20;;;;;;5014397;28;20028;-84
2022/07/24 04:07:06;;;;;;;10.35;9.23;;;26.30;69.00;;;;;;4997647;28;20038;-83
2022/07/24 04:09:32;;;;;;;12.63;9.13;;;26.40;68.70;;;;;;5012030;28;20103;-84
2022/07/24 04:11:58;;;;;;;11.18;9.38;;;26.60;68.30;;;;;;4996568;28;20496;-83
2022/07/24 04:14:24;;;;;;;9.93;8.55;;;26.80;67.70;;;;;;5013474;28;20032;-83
2022/07/24 04:16:50;;;;;;;10.10;8.50;;;27.00;67.50;;;;;;4998244;28;20486;-84
2022/07/24 04:19:16;;;;;;;10.00;8.45;;;27.10;67.10;;;;;;5012758;28;20049;-83
2022/07/24 04:21:42;;;;;;;11.05;8.63;;;27.10;67.10;;;;;;4996646;28;20220;-84
2022/07/24 04:24:08;;;;;;;10.45;8.63;;;27.10;67.30;;;;;;5015407;28;20536;-83
2022/07/24 04:26:34;;;;;;;10.18;8.40;;;27.10;67.20;;;;;;5014965;28;20034;-84
2022/07/24 04:29:00;;;;;;;11.20;8.18;;;27.20;67.20;;;;;;5017604;28;20025;-84
2022/07/24 04:31:26;;;;;;;10.35;8.57;;;27.20;67.10;;;;;;5015542;28;20034;-85
2022/07/24 04:33:52;;;;;;;10.43;8.27;;;27.30;67.00;;;;;;5013938;28;20083;-84
2022/07/24 04:36:18;;;;;;;8.55;7.63;;;27.40;66.80;;;;;;5012942;28;20053;-84
2022/07/24 04:38:44;;;;;;;10.27;8.00;;;27.60;66.50;;;;;;5030342;28;20042;-84
2022/07/24 04:41:10;;;;;;;9.80;7.85;;;27.60;66.10;;;;;;5013475;28;20467;-84
2022/07/24 04:43:36;;;;;;;8.60;7.70;;;27.70;66.10;;;;;;5013427;28;20030;-83
2022/07/24 04:46:02;;;;;;;8.32;7.53;;;27.60;66.20;;;;;;5014695;28;20030;-85
2022/07/24 04:48:28;;;;;;;8.27;7.47;;;27.80;66.10;;;;;;5017115;28;20121;-85
2022/07/24 04:50:53;;;;;;;10.43;7.93;;;28.10;65.70;;;;;;5013563;28;20033;-84
2022/07/24 04:53:20;;;;;;;8.75;7.93;;;28.20;64.90;;;;;;5013790;28;20128;-84
2022/07/24 04:55:46;;;;;;;7.78;6.97;;;28.30;64.80;;;;;;5014946;28;20041;-85
2022/07/24 04:58:12;;;;;;;7.50;6.80;;;28.60;64.20;;;;;;5014696;28;20033;-84
2022/07/24 05:00:38;;;;;;;8.40;7.55;;;28.80;63.80;;;;;;5012599;28;20753;-85
2022/07/24 05:03:03;;;;;;;7.72;6.90;;;29.00;63.20;;;;;;4997422;28;20045;-84
2022/07/24 05:05:29;;;;;;;7.30;6.60;;;29.20;63.00;;;;;;5014303;28;20040;-85
2022/07/24 05:07:55;;;;;;;8.98;7.15;;;29.30;62.20;;;;;;5014281;28;20412;-84
2022/07/24 05:10:21;;;;;;;10.68;7.25;;;29.40;61.90;;;;;;4983011;28;20088;-85
2022/07/24 05:12:47;;;;;;;7.63;6.82;;;29.60;62.40;;;;;;5012352;28;20046;-85
2022/07/24 05:15:13;;;;;;;7.70;6.35;;;29.70;61.70;;;;;;5013691;28;20065;-85
2022/07/24 05:17:39;;;;;;;9.20;7.47;;;29.60;61.80;;;;;;5013865;28;20025;-84
2022/07/24 05:20:06;;;;;;;8.35;6.78;;;29.50;62.10;;;;;;4997607;28;20029;-84
2022/07/24 05:22:32;;;;;;;9.40;7.10;;;29.30;62.30;;;;;;5033728;28;20049;-85
2022/07/24 05:24:58;;;;;;;8.02;6.72;;;29.30;62.60;;;;;;5015355;28;20048;-84
2022/07/24 05:27:24;;;;;;;7.43;6.72;;;29.20;62.90;;;;;;5033368;28;20030;-86
2022/07/24 05:29:50;;;;;;;8.40;6.35;;;29.20;63.00;;;;;;5033152;28;20666;-85
2022/07/24 05:32:16;;;;;;;9.38;6.80;;;29.20;63.30;;;;;;4984427;28;20037;-84
2022/07/24 05:34:41;;;;;;;7.05;6.35;;;29.20;63.30;;;;;;5016599;28;20044;-85
2022/07/24 05:37:08;;;;;;;9.65;6.40;;;29.10;63.30;;;;;;5017367;28;20042;-85
2022/07/24 05:39:34;;;;;;;6.97;6.22;;;29.10;63.50;;;;;;5030285;28;20075;-84
2022/07/24 05:42:00;;;;;;;6.97;6.35;;;29.10;63.70;;;;;;5029985;28;20037;-85
2022/07/24 05:44:26;;;;;;;8.23;6.32;;;29.00;63.90;;;;;;5007104;28;20045;-84
2022/07/24 05:46:52;;;;;;;8.95;6.38;;;29.00;63.90;;;;;;5018722;28;20271;-85
2022/07/24 05:49:18;;;;;;;6.80;5.68;;;29.10;63.90;;;;;;5016369;28;20060;-84
2022/07/24 05:51:44;;;;;;;8.43;6.25;;;29.10;64.00;;;;;;5017300;28;20060;-85
2022/07/24 05:54:10;;;;;;;7.25;5.72;;;29.20;64.00;;;;;;5016803;28;20037;-85
2022/07/24 05:56:36;;;;;;;5.88;5.38;;;29.20;63.90;;;;;;5016513;28;20476;-85
2022/07/24 05:59:02;;;;;;;6.38;5.70;;;29.30;63.80;;;;;;5021942;28;20026;-85
2022/07/24 06:01:28;;;;;;;6.97;5.70;;;29.40;63.70;;;;;;5020427;28;20539;-84
2022/07/24 06:03:54;;;;;;;7.10;5.40;;;29.50;63.60;;;;;;4999929;28;20029;-85
2022/07/24 06:06:20;;;;;;;6.60;5.72;;;29.60;63.30;;;;;;5016768;28;20030;-85
2022/07/24 06:08:46;;;;;;;6.57;5.72;;;29.70;63.20;;;;;;5016219;28;20036;-85
2022/07/24 06:11:12;;;;;;;7.30;5.57;;;29.70;63.00;;;;;;5016783;28;20033;-84
2022/07/24 06:13:38;;;;;;;6.32;5.28;;;29.70;63.00;;;;;;5016564;28;20038;-85
2022/07/24 06:16:04;;;;;;;6.05;5.43;;;29.70;62.80;;;;;;5031576;28;20045;-85
2022/07/24 06:18:30;;;;;;;9.65;5.63;;;29.70;62.80;;;;;;5017390;28;20029;-85
2022/07/24 06:20:56;;;;;;;5.63;5.03;;;29.80;62.90;;;;;;5016285;28;20037;-85
2022/07/24 06:23:22;;;;;;;6.40;5.10;;;29.80;62.60;;;;;;5017532;28;20885;-85
2022/07/24 06:25:48;;;;;;;6.40;5.40;;;29.80;62.40;;;;;;5014365;28;20045;-86
2022/07/24 06:28:14;;;;;;;5.38;4.85;;;29.80;62.50;;;;;;5016998;28;20030;-84
2022/07/24 06:30:40;;;;;;;5.53;4.93;;;29.80;62.60;;;;;;5003472;28;20452;-85
2022/07/24 06:33:06;;;;;;;6.55;4.95;;;29.80;62.50;;;;;;5015532;28;20034;-85
2022/07/24 06:35:32;;;;;;;5.45;4.93;;;29.80;62.50;;;;;;5018371;28;20064;-86
2022/07/24 06:38:00;;;;;;;5.30;4.80;;;29.70;62.50;;;;;;5017062;28;20156;-85
2022/07/24 06:40:27;;;;;;;6.65;5.43;;;29.70;62.60;;;;;;5014769;28;20042;-85
2022/07/24 06:42:53;;;;;;;5.35;4.70;;;29.70;62.60;;;;;;4991516;28;20180;-85
2022/07/24 06:45:19;;;;;;;5.32;4.80;;;29.70;62.70;;;;;;5016352;28;20159;-85
2022/07/24 06:47:46;;;;;;;5.15;4.65;;;29.70;62.70;;;;;;4999760;28;20124;-85
2022/07/24 06:50:13;;;;;;;5.53;4.50;;;29.80;62.60;;;;;;5016026;28;20036;-86
2022/07/24 06:52:39;;;;;;;5.15;4.65;;;29.80;62.40;;;;;;4998246;28;20052;-85
2022/07/24 06:55:06;;;;;;;5.22;4.72;;;29.80;62.50;;;;;;5014291;28;20033;-85
2022/07/24 06:57:33;;;;;;;6.95;4.70;;;29.80;62.50;;;;;;5015012;28;20033;-85
2022/07/24 06:59:58;;;;;;;4.80;4.40;;;29.80;62.40;;;;;;5014821;28;20041;-84
2022/07/24 07:02:24;;;;;;;5.63;4.18;;;29.80;62.50;;;;;;5031963;28;20050;-85
2022/07/24 07:04:50;;;;;;;5.15;4.65;;;29.80;62.50;;;;;;5016385;28;20029;-85
2022/07/24 07:07:16;;;;;;;4.75;4.15;;;29.80;62.50;;;;;;5014302;28;20068;-85
2022/07/24 07:09:43;;;;;;;4.65;4.03;;;29.70;62.60;;;;;;5015844;28;20148;-85
2022/07/24 07:12:09;;;;;;;4.20;3.90;;;29.80;62.40;;;;;;5016835;28;20058;-85
2022/07/24 07:14:36;;;;;;;4.20;3.80;;;29.70;62.30;;;;;;5014405;28;20535;-84
2022/07/24 07:17:03;;;;;;;4.50;4.03;;;29.70;62.30;;;;;;5018864;28;20036;-85
2022/07/24 07:19:29;;;;;;;4.10;3.70;;;29.80;62.20;;;;;;5001840;28;20102;-85
2022/07/24 07:21:55;;;;;;;4.78;3.88;;;29.80;62.10;;;;;;4999347;28;20485;-85
2022/07/24 07:24:21;;;;;;;4.20;3.80;;;29.70;62.00;;;;;;4993999;28;20124;-85
2022/07/24 07:26:47;;;;;;;4.57;3.80;;;29.50;62.10;;;;;;4979594;28;20034;-85
2022/07/24 07:29:13;;;;;;;6.90;3.70;;;29.40;62.40;;;;;;5011596;28;20061;-85
2022/07/24 07:31:39;;;;;;;5.20;3.45;;;29.30;62.40;;;;;;4994666;28;20066;-85
2022/07/24 07:34:05;;;;;;;3.97;3.58;;;29.30;62.30;;;;;;4995629;28;20049;-85
2022/07/24 07:36:31;;;;;;;3.97;3.55;;;29.30;62.20;;;;;;4996500;28;20038;-84
2022/07/24 07:38:57;;;;;;;3.70;3.40;;;29.30;62.10;;;;;;4994787;28;20528;-85
2022/07/24 07:41:24;;;;;;;3.72;3.42;;;29.30;62.10;;;;;;4996524;28;20602;-85
2022/07/24 07:43:50;;;;;;;4.63;3.20;;;29.30;62.10;;;;;;4977867;28;20108;-86
2022/07/24 07:46:16;;;;;;;3.80;3.28;;;29.30;62.00;;;;;;4978487;28;20583;-87
2022/07/24 07:48:42;;;;;;;3.67;3.22;;;29.30;61.80;;;;;;4981789;28;20578;-85
2022/07/24 07:51:08;;;;;;;4.07;3.35;;;29.20;61.90;;;;;;4983323;28;20133;-84
2022/07/24 07:53:35;;;;;;;5.32;3.03;;;29.20;61.70;;;;;;4980051;28;20133;-84
2022/07/24 07:56:01;;;;;;;4.78;3.33;;;29.10;61.70;;;;;;5003227;28;20489;-84
2022/07/24 07:58:27;;;;;;;3.88;3.47;;;29.10;61.60;;;;;;5013898;28;20045;-85
2022/07/24 08:00:54;;;;;;;4.05;3.45;;;29.10;61.60;;;;;;4997706;28;20041;-86
2022/07/24 08:03:21;;;;;;;3.00;2.67;;;29.10;61.30;;;;;;4986659;28;20051;-85
2022/07/24 08:05:47;;;;;;;3.70;3.40;;;29.10;61.10;;;;;;5015194;28;20038;-85
2022/07/24 08:08:13;;;;;;;4.05;3.35;;;29.10;61.60;;;;;;5014239;28;20041;-84
2022/07/24 08:10:39;;;;;;;3.63;3.30;;;29.10;60.80;;;;;;5014309;28;20037;-84
2022/07/24 08:13:05;;;;;;;3.33;3.00;;;29.10;60.70;;;;;;5014749;28;20041;-84
2022/07/24 08:15:31;;;;;;;3.47;3.17;;;29.10;60.50;;;;;;5013685;28;20045;-85
2022/07/24 08:17:58;;;;;;;3.33;3.03;;;29.00;60.50;;;;;;5016531;28;20038;-83
2022/07/24 08:20:25;;;;;;;3.80;3.40;;;29.00;60.70;;;;;;5026509;28;20045;-82
2022/07/24 08:22:52;;;;;;;3.88;3.10;;;28.90;60.60;;;;;;5046643;28;20064;-84
2022/07/24 08:25:18;;;;;;;3.22;3.03;;;28.90;60.50;;;;;;5019372;28;20103;-85
2022/07/24 08:27:44;;;;;;;3.38;3.15;;;28.90;60.70;;;;;;4998673;28;20034;-86
2022/07/24 08:30:11;;;;;;;3.95;3.13;;;28.90;60.80;;;;;;5015605;28;20037;-85
2022/07/24 08:32:37;;;;;;;3.00;2.80;;;28.90;60.80;;;;;;5011594;28;20060;-85
2022/07/24 08:35:04;;;;;;;3.35;3.00;;;28.80;60.80;;;;;;5013623;28;20029;-85
2022/07/24 08:37:34;;;;;;;3.58;3.28;;;28.80;60.90;;;;;;5014472;28;20041;-86
2022/07/24 08:40:00;;;;;;;3.40;3.10;;;28.80;60.90;;;;;;4996897;28;20037;-85
2022/07/24 08:42:26;;;;;;;4.00;3.40;;;28.70;61.00;;;;;;4997696;28;20038;-85
2022/07/24 08:44:52;;;;;;;3.25;3.00;;;28.70;60.70;;;;;;4996983;28;20567;-85
2022/07/24 08:47:19;;;;;;;3.20;2.97;;;28.70;60.70;;;;;;5013863;28;20088;-84
2022/07/24 08:49:48;;;;;;;3.58;3.28;;;28.70;60.80;;;;;;5012446;28;20132;-85
2022/07/24 08:52:17;;;;;;;3.78;2.88;;;28.70;60.70;;;;;;5013270;28;20045;-85
2022/07/24 08:54:43;;;;;;;3.30;3.10;;;28.70;60.60;;;;;;5032050;28;20038;-84
2022/07/24 08:57:09;;;;;;;3.22;2.90;;;28.70;60.80;;;;;;5001600;28;20100;-85
2022/07/24 08:59:35;;;;;;;4.10;3.33;;;28.70;60.80;;;;;;5016409;28;20104;-84
2022/07/24 09:02:01;;;;;;;3.33;3.03;;;28.70;60.60;;;;;;5021848;28;20081;-85
2022/07/24 09:04:35;;;;;;;3.83;2.72;;;28.60;61.30;;;;;;5018539;28;20034;-86
2022/07/24 09:07:06;;;;;;;3.55;2.90;;;28.60;60.50;;;;;;5001433;28;20030;-85
2022/07/24 09:09:32;;;;;;;3.20;2.92;;;28.60;60.00;;;;;;5015879;28;20128;-85
2022/07/24 09:12:14;;;;;;;3.90;3.10;;;28.60;59.70;;;;;;5017056;28;20394;-85
2022/07/24 09:14:43;;;;;;;3.25;3.05;;;28.60;59.60;;;;;;5000990;28;20061;-85
2022/07/24 09:17:13;;;;;;;3.50;3.20;;;28.60;59.10;;;;;;5017726;28;20113;-85
2022/07/24 09:19:48;;;;;;;3.50;3.00;;;28.60;59.00;;;;;;5016017;28;20099;-84
2022/07/24 09:22:37;;;;;;;3.55;3.22;;;28.60;59.00;;;;;;5018532;28;20049;-85
2022/07/24 09:25:18;;;;;;;3.28;3.00;;;28.60;58.00;;;;;;4987789;28;20041;-83
2022/07/24 09:27:54;;;;;;;3.00;2.80;;;28.60;58.20;;;;;;5033765;28;20041;-85
2022/07/24 09:30:39;;;;;;;3.00;2.70;;;28.60;58.00;;;;;;5032850;28;20051;-84
2022/07/24 09:33:18;;;;;;;2.90;2.70;;;28.50;57.60;;;;;;5018072;28;20538;-85
2022/07/24 09:35:48;;;;;;;5.30;3.30;;;28.50;57.80;;;;;;5032183;28;20599;-84
2022/07/24 09:38:16;;;;;;;4.45;2.97;;;28.50;57.90;;;;;;5019508;28;20071;-84
2022/07/24 09:40:44;;;;;;;3.13;2.83;;;28.50;57.60;;;;;;5020636;28;20404;-84
2022/07/24 09:43:21;;;;;;;3.15;2.92;;;28.40;57.60;;;;;;5015663;28;20088;-84
2022/07/24 09:46:02;;;;;;;2.85;2.53;;;28.50;57.40;;;;;;5017846;28;20044;-84
2022/07/24 09:48:38;;;;;;;3.15;2.78;;;28.40;57.50;;;;;;5017820;28;20065;-85
2022/07/24 09:51:15;;;;;;;3.25;2.85;;;28.40;57.60;;;;;;5015700;28;20045;-84
2022/07/24 09:53:43;;;;;;;3.03;2.72;;;28.40;57.40;;;;;;5032646;28;20026;-84
2022/07/24 09:56:15;;;;;;;3.30;3.00;;;28.40;57.70;;;;;;5002733;28;20515;-84
2022/07/24 09:58:48;;;;;;;3.00;2.80;;;28.40;57.70;;;;;;5016901;28;20041;-84
2022/07/24 10:01:17;;;;;;;3.03;2.83;;;28.40;57.60;;;;;;5017221;28;20038;-84
2022/07/24 10:03:45;;;;;;;3.10;2.90;;;28.30;57.80;;;;;;5016336;28;20030;-84
2022/07/24 10:06:13;;;;;;;2.90;2.70;;;28.30;57.80;;;;;;5014638;28;20207;-85
2022/07/24 10:08:41;;;;;;;3.20;2.90;;;28.30;57.60;;;;;;4999144;28;20096;-85
2022/07/24 10:11:08;;;;;;;3.40;3.00;;;28.20;57.70;;;;;;5019421;28;20056;-86
2022/07/24 10:13:35;;;;;;;4.80;2.90;;;28.30;57.70;;;;;;5005754;28;20033;-85
2022/07/24 10:16:01;;;;;;;3.65;3.08;;;28.30;57.30;;;;;;5031485;28;20033;-85
2022/07/24 10:19:00;;;;;;;3.25;3.03;;;28.20;58.30;;;;;;5017251;28;20096;-86
2022/07/24 10:21:30;;;;;;;4.45;2.95;;;28.30;57.70;;;;;;5017609;28;20041;-86
2022/07/24 10:24:05;;;;;;;3.00;2.80;;;28.30;57.80;;;;;;5016360;28;20044;-86
2022/07/24 10:26:45;;;;;;;3.65;3.05;;;28.30;57.80;;;;;;5015223;28;20563;-86
2022/07/24 10:29:17;;;;;;;4.25;2.97;;;28.30;57.90;;;;;;5017244;28;20026;-82
2022/07/24 10:31:48;;;;;;;3.00;2.80;;;28.30;57.90;;;;;;5015384;28;20064;-85
2022/07/24 10:34:32;;;;;;;3.78;2.88;;;28.30;58.10;;;;;;5015342;28;20373;-86
2022/07/24 10:37:06;;;;;;;3.40;3.00;;;28.30;58.30;;;;;;5031488;28;20318;-86
2022/07/24 10:40:03;;;;;;;2.85;2.70;;;28.30;58.40;;;;;;5016723;28;20516;-86
2022/07/24 10:42:29;;;;;;;4.18;3.05;;;28.30;58.80;;;;;;5014588;28;20133;-86
2022/07/24 10:45:14;;;;;;;3.17;2.97;;;28.20;58.70;;;;;;4999104;28;20060;-85
2022/07/24 10:47:40;;;;;;;4.03;3.13;;;28.30;58.90;;;;;;5031104;28;20042;-86
2022/07/24 10:50:06;;;;;;;3.42;3.13;;;28.20;58.90;;;;;;5000081;28;20087;-86
2022/07/24 10:52:34;;;;;;;3.45;3.00;;;28.20;59.00;;;;;;5015137;28;20049;-87
2022/07/24 10:55:26;;;;;;;3.58;3.28;;;28.20;59.10;;;;;;5015359;28;20038;-85
2022/07/24 10:58:01;;;;;;;3.20;3.00;;;28.20;58.90;;;;;;5031319;28;20037;-86
2022/07/24 11:00:37;;;;;;;;;;;28.10;59.10;;;;;;5006997;28;20037;-86
2022/07/24 11:03:06;;;;;;;3.72;3.40;;;28.10;59.20;;;;;;5043244;28;19933;-86
2022/07/24 11:05:35;;;;;;;3.45;3.17;;;28.20;59.20;;;;;;5023456;28;20060;-85
2022/07/24 11:08:20;;;;;;;3.47;3.08;;;28.20;59.10;;;;;;5017880;28;20060;-86
2022/07/24 11:10:46;;;;;;;3.53;3.30;;;28.10;59.10;;;;;;4999281;28;20041;-86
2022/07/24 11:13:31;;;;;;;3.95;3.28;;;28.10;59.10;;;;;;4968876;28;20041;-86
2022/07/24 11:16:15;;;;;;;3.50;3.22;;;28.10;59.30;;;;;;4980586;28;20034;-85
2022/07/24 11:18:47;;;;;;;3.50;3.20;;;28.10;59.40;;;;;;4994578;28;20042;-86
2022/07/24 11:21:29;;;;;;;3.47;3.17;;;28.10;59.80;;;;;;4981824;28;20121;-86
2022/07/24 11:24:14;;;;;;;3.38;3.17;;;28.10;59.40;;;;;;4957839;28;20108;-85
2022/07/24 11:26:45;;;;;;;6.20;3.30;;;28.10;59.50;;;;;;4999930;28;20030;-85
2022/07/24 11:29:23;;;;;;;3.53;3.22;;;28.20;59.50;;;;;;4994132;28;20033;-85
2022/07/24 11:31:53;;;;;;;3.63;3.33;;;28.20;59.30;;;;;;5014765;28;20124;-85
2022/07/24 11:34:19;;;;;;;4.28;3.33;;;28.10;59.40;;;;;;5015056;28;20038;-85
2022/07/24 11:36:47;;;;;;;3.70;3.40;;;28.10;59.60;;;;;;5030351;28;20487;-85
2022/07/24 11:39:14;;;;;;;5.43;3.97;;;28.20;59.60;;;;;;5014589;28;20120;-86
2022/07/24 11:41:46;;;;;;;4.57;3.33;;;28.10;59.70;;;;;;5013891;28;20033;-85
2022/07/24 11:44:14;;;;;;;3.47;3.17;;;28.10;59.50;;;;;;5003224;28;20515;-85
2022/07/24 11:46:41;;;;;;;3.67;3.38;;;28.20;59.50;;;;;;5013315;28;20045;-86
2022/07/24 11:49:09;;;;;;;3.63;3.33;;;28.20;59.30;;;;;;5030377;28;20034;-85
2022/07/24 11:51:42;;;;;;;3.55;3.25;;;28.10;59.50;;;;;;5030421;28;20030;-85
2022/07/24 11:54:10;;;;;;;3.85;3.55;;;28.10;59.50;;;;;;5014811;28;20084;-86
2022/07/24 11:56:36;;;;;;;3.50;3.30;;;28.10;59.60;;;;;;5014137;28;21417;-86
2022/07/24 11:59:02;;;;;;;3.40;3.10;;;28.10;59.70;;;;;;5014977;28;20025;-86
2022/07/24 12:01:29;;;;;;;3.70;3.38;;;28.10;59.80;;;;;;5014966;28;20137;-86
2022/07/24 12:03:58;;;;;;;3.58;3.28;;;28.10;59.70;;;;;;5001069;28;20049;-85
2022/07/24 12:06:26;;;;;;;3.92;3.50;;;28.00;59.80;;;;;;5015567;28;20501;-85
2022/07/24 12:08:58;;;;;;;4.63;3.05;;;28.00;59.80;;;;;;4997684;28;20113;-85
2022/07/24 12:11:24;;;;;;;3.60;3.25;;;28.00;60.00;;;;;;5011307;28;20535;-85
2022/07/24 12:13:53;;;;;;;3.70;3.38;;;28.00;60.10;;;;;;5014816;28;20091;-85
2022/07/24 12:16:28;;;;;;;3.30;3.08;;;28.00;60.00;;;;;;4969336;28;20034;-85
2022/07/24 12:19:18;;;;;;;4.53;3.40;;;28.00;60.10;;;;;;4993767;28;20034;-85
2022/07/24 12:21:45;;;;;;;3.72;3.40;;;28.00;60.10;;;;;;5010029;28;20457;-85
2022/07/24 12:24:12;;;;;;;3.92;3.38;;;28.00;60.10;;;;;;4993430;28;20539;-83
2022/07/24 12:26:49;;;;;;;3.72;3.35;;;28.00;60.00;;;;;;4975174;28;20065;-78
2022/07/24 12:29:15;;;;;;;6.90;3.65;;;28.00;60.30;;;;;;5010856;28;20026;-83
2022/07/24 12:31:41;;;;;;;6.20;3.50;;;28.00;60.70;;;;;;4963705;28;20046;-84
2022/07/24 12:34:07;;;;;;;5.35;3.63;;;28.00;60.60;;;;;;4983213;28;20045;-83
2022/07/24 12:36:33;;;;;;;4.30;3.33;;;28.00;60.70;;;;;;4980880;28;20721;-86
2022/07/24 12:39:00;;;;;;;4.28;3.78;;;28.00;61.40;;;;;;4984588;28;20069;-85
2022/07/24 12:41:28;;;;;;;4.30;3.90;;;28.00;61.50;;;;;;4997857;28;20041;-86
2022/07/24 12:43:57;;;;;;;3.80;3.45;;;27.90;61.30;;;;;;4996183;28;20045;-83